Time;durP1;ratioP1;P1;durP2;ratioP2;P2;SDS_P1;SDS_P2;PMS_P1;PMS_P2;Temp;Humidity;BMP_temperature;BMP_pressure;BME280_temperature;BME280_humidity;BME280_pressure;Samples;Min_cycle;Max_cycle;Signal;HPM_P1;HPM_P2
2023/06/24 00:02:19;;;;;;;7.85;3.20;;;;;;;21.85;46.56;100653.19;4986775;28;20054;-78
2023/06/24 00:04:45;;;;;;;3.63;3.22;;;;;;;21.80;46.29;100647.41;4974404;28;20051;-78
2023/06/24 00:07:12;;;;;;;6.68;3.15;;;;;;;21.77;46.27;100655.72;4973984;28;20054;-78
2023/06/24 00:09:39;;;;;;;7.05;3.65;;;;;;;21.71;46.12;100651.72;4974081;28;20210;-79
2023/06/24 00:12:06;;;;;;;9.10;3.20;;;;;;;21.67;46.40;100656.53;4976031;28;20105;-78
2023/06/24 00:14:33;;;;;;;6.65;3.10;;;;;;;21.62;46.30;100656.09;4993221;28;20061;-78
2023/06/24 00:16:59;;;;;;;5.78;3.08;;;;;;;21.58;46.52;100663.56;4993347;28;20282;-78
2023/06/24 00:19:26;;;;;;;7.18;3.08;;;;;;;21.54;46.82;100664.81;4993146;28;20058;-78
2023/06/24 00:21:54;;;;;;;7.75;3.53;;;;;;;21.50;47.04;100662.53;4992850;28;20316;-79
2023/06/24 00:24:25;;;;;;;4.72;3.20;;;;;;;21.45;46.98;100665.63;4987329;23;20026;-79
2023/06/24 00:26:53;;;;;;;5.68;3.25;;;;;;;21.40;46.53;100657.16;4975143;28;20412;-79
2023/06/24 00:29:20;;;;;;;6.30;3.17;;;;;;;21.36;46.36;100656.59;4993071;28;20050;-79
2023/06/24 00:31:47;;;;;;;5.13;3.20;;;;;;;21.33;46.83;100656.84;4992934;28;20046;-79
2023/06/24 00:34:14;;;;;;;3.97;2.83;;;;;;;21.30;46.98;100660.66;4979377;28;20058;-79
2023/06/24 00:36:40;;;;;;;6.10;2.78;;;;;;;21.27;46.90;100666.28;4990362;28;20061;-79
2023/06/24 00:39:07;;;;;;;4.75;3.30;;;;;;;21.24;46.80;100663.88;4993056;28;20058;-79
2023/06/24 00:41:34;;;;;;;4.13;2.97;;;;;;;21.19;47.08;100661.59;4992995;28;20492;-79
2023/06/24 00:44:01;;;;;;;5.72;3.00;;;;;;;21.17;47.24;100670.75;4983161;28;20054;-79
2023/06/24 00:46:28;;;;;;;6.65;2.97;;;;;;;21.13;47.73;100667.50;4973190;28;20051;-79
2023/06/24 00:48:56;;;;;;;5.68;2.78;;;;;;;21.07;47.80;100658.19;4973582;28;20059;-79
2023/06/24 00:51:30;;;;;;;6.38;2.80;;;;;;;21.04;47.17;100658.44;4973236;28;20061;-79
2023/06/24 00:53:57;;;;;;;6.60;3.00;;;;;;;21.01;47.17;100661.38;4979511;28;20411;-79
2023/06/24 00:56:28;;;;;;;6.40;3.08;;;;;;;20.96;47.48;100656.44;4992706;28;20061;-80
2023/06/24 00:58:55;;;;;;;7.63;2.75;;;;;;;20.92;47.18;100663.03;4975041;28;20092;-79
2023/06/24 01:01:23;;;;;;;4.13;3.00;;;;;;;20.89;46.94;100662.47;4992505;28;20047;-80
2023/06/24 01:03:50;;;;;;;2.78;2.40;;;;;;;20.85;47.02;100667.19;4990770;28;20134;-79
2023/06/24 01:06:17;;;;;;;5.55;2.72;;;;;;;20.82;46.79;100664.78;4992155;28;20053;-79
2023/06/24 01:08:50;;;;;;;3.55;2.80;;;;;;;20.78;47.51;100666.84;4992239;28;20062;-79
2023/06/24 01:11:17;;;;;;;3.47;2.92;;;;;;;20.77;48.04;100667.84;4992534;28;20146;-79
2023/06/24 01:13:44;;;;;;;2.72;2.50;;;;;;;20.75;48.14;100663.63;4992693;28;20054;-79
2023/06/24 01:16:25;;;;;;;4.38;2.53;;;;;;;20.69;48.71;100673.00;4974385;28;20085;-79
2023/06/24 01:19:00;;;;;;;5.05;2.90;;;;;;;20.69;48.70;100670.34;4972801;28;20105;-78
2023/06/24 01:21:50;;;;;;;5.28;2.75;;;;;;;20.65;48.91;100667.09;4971739;28;20054;-79
2023/06/24 01:24:49;;;;;;;5.70;2.85;;;;;;;20.63;48.78;100665.53;4973063;28;20463;-79
2023/06/24 01:27:32;;;;;;;3.85;2.67;;;;;;;20.61;48.88;100671.00;4972693;28;20137;-80
2023/06/24 01:30:11;;;;;;;;;;;;;;;20.59;47.87;100664.91;4973284;28;20113;-79
2023/06/24 01:32:56;;;;;;;2.95;2.35;;;;;;;20.57;48.26;100667.72;4972018;28;19926;-80
2023/06/24 01:35:32;;;;;;;9.32;3.05;;;;;;;20.56;48.84;100659.84;4959882;28;20422;-79
2023/06/24 01:38:03;;;;;;;5.70;3.00;;;;;;;20.56;49.09;100665.19;4991964;28;20093;-80
2023/06/24 01:40:40;;;;;;;7.35;2.88;;;;;;;20.51;49.66;100660.22;4974678;28;20564;-80
2023/06/24 01:43:10;;;;;;;6.47;2.67;;;;;;;20.51;49.30;100657.56;4992160;28;20062;-79
2023/06/24 01:45:42;;;;;;;4.90;3.05;;;;;;;20.49;49.63;100654.16;4988165;28;20050;-79
2023/06/24 01:48:15;;;;;;;5.15;3.22;;;;;;;20.48;49.52;100655.13;4972366;28;20051;-78
2023/06/24 01:51:17;;;;;;;5.55;2.88;;;;;;;20.44;49.50;100654.56;4972706;28;20054;-79
2023/06/24 01:53:54;;;;;;;4.13;2.67;;;;;;;20.44;49.26;100657.22;4955510;28;20554;-79
2023/06/24 01:56:24;;;;;;;3.05;2.53;;;;;;;20.44;49.49;100656.38;4974126;28;20054;-79
2023/06/24 01:58:53;;;;;;;7.18;2.78;;;;;;;20.43;49.51;100655.53;4972303;28;20055;-80
2023/06/24 02:01:21;;;;;;;5.63;3.13;;;;;;;20.40;49.68;100653.13;4972321;28;20062;-79
2023/06/24 02:03:49;;;;;;;12.70;3.22;;;;;;;20.39;49.77;100659.44;4972453;28;20062;-79
2023/06/24 02:06:17;;;;;;;5.15;3.15;;;;;;;20.39;49.85;100654.09;4981493;28;20083;-79
2023/06/24 02:08:47;;;;;;;5.50;3.25;;;;;;;20.36;50.19;100649.00;4972187;28;20054;-79
2023/06/24 02:11:15;;;;;;;5.47;3.15;;;;;;;20.36;50.17;100646.31;4972224;28;20062;-80
2023/06/24 02:13:43;;;;;;;5.93;2.88;;;;;;;20.35;50.21;100660.69;4954944;28;20586;-81
2023/06/24 02:16:12;;;;;;;8.10;3.20;;;;;;;20.33;50.05;100654.59;4981881;28;20050;-79
2023/06/24 02:18:43;;;;;;;3.70;2.95;;;;;;;20.32;49.83;100658.25;4991528;28;20415;-79
2023/06/24 02:21:11;;;;;;;6.97;3.20;;;;;;;20.29;49.96;100656.69;4991905;28;20058;-79
2023/06/24 02:23:39;;;;;;;5.25;3.28;;;;;;;20.29;49.17;100658.50;4991693;28;20047;-79
2023/06/24 02:26:06;;;;;;;4.35;3.70;;;;;;;20.27;49.58;100661.34;4984007;28;20127;-79
2023/06/24 02:28:34;;;;;;;6.80;3.28;;;;;;;20.27;49.36;100655.13;4954692;28;20047;-80
2023/06/24 02:31:01;;;;;;;4.90;2.90;;;;;;;20.27;49.51;100652.47;4972228;28;20090;-79
2023/06/24 02:33:28;;;;;;;4.30;3.08;;;;;;;20.27;49.49;100653.31;4972078;28;20139;-79
2023/06/24 02:35:55;;;;;;;5.07;3.22;;;;;;;20.28;49.68;100651.47;4973834;28;20050;-79
2023/06/24 02:38:22;;;;;;;6.28;3.33;;;;;;;20.28;50.20;100654.16;4991156;28;20058;-79
2023/06/24 02:40:49;;;;;;;4.47;3.40;;;;;;;20.28;49.90;100654.16;4991316;28;20058;-79
2023/06/24 02:43:17;;;;;;;3.97;3.05;;;;;;;20.27;50.02;100650.63;4991701;28;20154;-80
2023/06/24 02:45:46;;;;;;;5.10;3.22;;;;;;;20.26;50.28;100654.28;4977832;28;20105;-80
2023/06/24 02:48:14;;;;;;;4.32;3.08;;;;;;;20.24;50.41;100656.25;4976906;28;20412;-79
2023/06/24 02:50:44;;;;;;;5.85;3.65;;;;;;;20.24;49.80;100655.38;4958452;28;20063;-79
2023/06/24 02:53:12;;;;;;;7.28;3.63;;;;;;;20.22;49.81;100654.66;4975417;28;20055;-79
2023/06/24 02:55:41;;;;;;;5.95;4.85;;;;;;;20.20;49.75;100660.16;4975136;28;20105;-79
2023/06/24 02:58:09;;;;;;;6.82;4.55;;;;;;;20.18;49.49;100660.25;4972637;28;20050;-79
2023/06/24 03:00:37;;;;;;;7.32;4.38;;;;;;;20.19;49.86;100663.81;4985345;28;20463;-80
2023/06/24 03:03:05;;;;;;;10.32;4.03;;;;;;;20.19;49.79;100661.13;4975631;28;20061;-79
2023/06/24 03:05:33;;;;;;;5.20;3.85;;;;;;;20.19;50.12;100661.13;4976401;28;20499;-78
2023/06/24 03:08:00;;;;;;;5.05;3.78;;;;;;;20.18;49.50;100668.28;4960611;28;20124;-79
2023/06/24 03:10:27;;;;;;;7.10;3.70;;;;;;;20.17;49.62;100671.94;4978590;28;20054;-79
2023/06/24 03:12:54;;;;;;;5.80;3.15;;;;;;;20.16;49.97;100659.56;4975542;28;20174;-80
2023/06/24 03:15:20;;;;;;;4.78;3.17;;;;;;;20.17;50.01;100665.72;4957765;28;20459;-79
2023/06/24 03:17:47;;;;;;;4.80;2.95;;;;;;;20.16;50.42;100670.25;4975206;28;20061;-79
2023/06/24 03:20:14;;;;;;;5.18;3.38;;;;;;;20.17;50.23;100676.44;4975406;28;20062;-79
2023/06/24 03:22:40;;;;;;;6.43;3.75;;;;;;;20.16;50.32;100667.59;4972893;28;20143;-80
2023/06/24 03:25:07;;;;;;;6.20;3.10;;;;;;;20.14;50.07;100671.31;4964513;28;20120;-79
2023/06/24 03:27:34;;;;;;;6.82;3.72;;;;;;;20.13;50.75;100667.81;4994234;28;20094;-79
2023/06/24 03:30:01;;;;;;;7.93;3.70;;;;;;;20.12;50.35;100666.13;4990358;28;20051;-79
2023/06/24 03:32:28;;;;;;;6.90;3.80;;;;;;;20.10;49.87;100659.19;4974811;28;20062;-79
2023/06/24 03:34:54;;;;;;;4.70;3.20;;;;;;;20.07;49.85;100662.97;4974809;28;20054;-79
2023/06/24 03:37:21;;;;;;;7.00;3.67;;;;;;;20.06;50.22;100666.63;4974698;28;20050;-79
2023/06/24 03:39:48;;;;;;;6.65;3.20;;;;;;;20.05;50.04;100676.50;4974730;28;20105;-79
2023/06/24 03:42:14;;;;;;;4.07;3.17;;;;;;;20.04;49.91;100672.09;4978532;28;20109;-79
2023/06/24 03:44:41;;;;;;;4.20;2.97;;;;;;;20.06;50.04;100677.31;4993927;28;20105;-79
2023/06/24 03:47:08;;;;;;;4.07;3.08;;;;;;;20.07;49.77;100673.66;4993888;28;20050;-79
2023/06/24 03:49:34;;;;;;;5.47;3.25;;;;;;;20.10;49.96;100670.75;4994159;28;20050;-80
2023/06/24 03:52:01;;;;;;;6.03;3.50;;;;;;;20.11;50.19;100675.09;4979941;28;20062;-79
2023/06/24 03:54:28;;;;;;;5.82;3.05;;;;;;;20.13;50.51;100665.16;4974310;28;20086;-79
2023/06/24 03:56:54;;;;;;;8.45;2.83;;;;;;;20.17;50.28;100666.59;4973289;28;20480;-79
2023/06/24 03:59:21;;;;;;;9.15;3.25;;;;;;;20.19;50.33;100669.16;4974536;28;20058;-79
2023/06/24 04:01:47;;;;;;;3.83;3.40;;;;;;;20.22;50.42;100676.06;4991177;28;20105;-81
2023/06/24 04:04:14;;;;;;;4.75;3.20;;;;;;;20.23;50.46;100675.94;4993483;28;20081;-79
2023/06/24 04:06:41;;;;;;;4.78;3.28;;;;;;;20.25;49.93;100675.78;4993536;28;20069;-79
2023/06/24 04:09:09;;;;;;;4.82;3.35;;;;;;;20.26;49.86;100681.00;4993549;28;20120;-79
2023/06/24 04:11:36;;;;;;;4.88;3.10;;;;;;;20.28;49.88;100686.22;4980452;28;20117;-79
2023/06/24 04:14:06;;;;;;;5.35;3.28;;;;;;;20.29;49.90;100680.75;4972795;28;20058;-79
2023/06/24 04:16:33;;;;;;;5.47;3.42;;;;;;;20.31;49.99;100683.31;4973649;28;20051;-80
2023/06/24 04:18:59;;;;;;;5.85;3.33;;;;;;;20.34;50.12;100690.22;4973825;28;20117;-79
2023/06/24 04:21:26;;;;;;;8.85;3.53;;;;;;;20.34;49.76;100685.72;4982753;28;20058;-79
2023/06/24 04:23:53;;;;;;;4.65;3.15;;;;;;;20.37;50.06;100680.09;4993404;28;20054;-79
2023/06/24 04:26:19;;;;;;;5.03;3.60;;;;;;;20.40;49.99;100676.31;4993107;28;20065;-80
2023/06/24 04:28:46;;;;;;;5.85;3.47;;;;;;;20.42;50.14;100685.06;4992995;28;20050;-79
2023/06/24 04:31:12;;;;;;;13.43;3.22;;;;;;;20.46;49.90;100682.97;4989042;28;20047;-79
2023/06/24 04:33:39;;;;;;;4.93;3.60;;;;;;;20.49;49.93;100685.41;4978016;28;20506;-81
2023/06/24 04:36:06;;;;;;;6.00;3.60;;;;;;;20.51;50.18;100688.78;4992509;28;20058;-79
2023/06/24 04:38:32;;;;;;;6.20;3.70;;;;;;;20.55;50.00;100684.88;4984671;28;20055;-79
2023/06/24 04:40:59;;;;;;;4.38;3.25;;;;;;;20.59;50.15;100688.97;4992844;28;20520;-80
2023/06/24 04:43:28;;;;;;;6.47;3.72;;;;;;;20.61;50.10;100686.19;4988904;28;20061;-79
2023/06/24 04:45:57;;;;;;;5.45;3.60;;;;;;;20.64;49.80;100691.28;4979369;28;20057;-79
2023/06/24 04:48:24;;;;;;;7.28;3.67;;;;;;;20.68;50.35;100687.38;4992578;28;20511;-79
2023/06/24 04:50:53;;;;;;;6.03;3.70;;;;;;;20.69;50.11;100684.56;4992851;28;20089;-80
2023/06/24 04:53:20;;;;;;;6.57;4.00;;;;;;;20.73;50.28;100676.25;4959650;28;20543;-79
2023/06/24 04:55:47;;;;;;;6.43;3.95;;;;;;;20.77;50.16;100677.69;4955906;28;20062;-79
2023/06/24 04:58:13;;;;;;;6.90;3.88;;;;;;;20.79;50.45;100668.56;4973155;28;20059;-79
2023/06/24 05:00:40;;;;;;;5.03;3.42;;;;;;;20.82;50.22;100676.31;4973103;28;20054;-79
2023/06/24 05:03:07;;;;;;;8.07;4.10;;;;;;;20.85;50.20;100672.53;4984280;28;20169;-79
2023/06/24 05:05:33;;;;;;;5.03;3.92;;;;;;;20.88;50.21;100674.97;4992657;28;20050;-79
2023/06/24 05:08:02;;;;;;;6.72;4.30;;;;;;;20.90;50.07;100681.03;4991110;28;20060;-80
2023/06/24 05:10:28;;;;;;;8.15;4.55;;;;;;;20.92;50.13;100679.09;4991231;28;20054;-79
2023/06/24 05:12:55;;;;;;;5.25;4.03;;;;;;;20.94;50.25;100690.50;4985846;28;20047;-79
2023/06/24 05:15:21;;;;;;;4.63;3.85;;;;;;;20.97;50.20;100681.34;4973075;28;20389;-80
2023/06/24 05:17:48;;;;;;;7.45;3.97;;;;;;;21.00;49.99;100682.94;4972839;28;20078;-79
2023/06/24 05:20:18;;;;;;;6.25;4.47;;;;;;;21.04;50.07;100676.34;4973018;28;20055;-78
2023/06/24 05:22:45;;;;;;;8.40;5.00;;;;;;;21.07;50.12;100674.25;4974864;28;20459;-79
2023/06/24 05:25:12;;;;;;;6.60;3.95;;;;;;;21.11;50.26;100680.16;4991875;28;20050;-79
2023/06/24 05:27:38;;;;;;;7.88;4.00;;;;;;;21.15;50.05;100686.13;4991852;28;20105;-79
2023/06/24 05:30:05;;;;;;;5.90;4.30;;;;;;;21.19;49.84;100687.50;4992280;28;20059;-79
2023/06/24 05:32:32;;;;;;;5.43;3.95;;;;;;;21.22;49.94;100689.94;4991876;28;20466;-80
2023/06/24 05:34:59;;;;;;;5.95;4.43;;;;;;;21.25;49.79;100686.13;4976836;28;20054;-79
2023/06/24 05:37:25;;;;;;;5.72;4.13;;;;;;;21.29;49.89;100684.88;4991890;28;20046;-79
2023/06/24 05:39:52;;;;;;;5.97;4.38;;;;;;;21.31;49.70;100688.28;4992055;28;20054;-80
2023/06/24 05:42:19;;;;;;;7.15;4.03;;;;;;;21.34;49.68;100682.63;4991942;28;20046;-80
2023/06/24 05:44:46;;;;;;;6.38;4.38;;;;;;;21.37;49.92;100687.72;4991470;28;20050;-79
2023/06/24 05:47:12;;;;;;;7.43;4.60;;;;;;;21.41;49.99;100680.28;4990733;28;20058;-80
2023/06/24 05:49:39;;;;;;;6.20;4.70;;;;;;;21.46;49.91;100686.09;4991772;28;20458;-81
2023/06/24 05:52:06;;;;;;;7.50;4.32;;;;;;;21.49;49.72;100685.78;4992068;28;20109;-79
2023/06/24 05:54:32;;;;;;;7.65;4.45;;;;;;;21.51;49.89;100686.53;4983586;28;20055;-79
2023/06/24 05:56:59;;;;;;;5.47;4.53;;;;;;;21.55;49.73;100687.09;4972078;28;20055;-80
2023/06/24 05:59:26;;;;;;;6.30;4.65;;;;;;;21.58;49.83;100686.81;4986247;28;20121;-80
2023/06/24 06:01:52;;;;;;;6.53;4.03;;;;;;;21.62;49.83;100688.25;4991871;28;20061;-79
2023/06/24 06:04:19;;;;;;;5.68;4.20;;;;;;;21.64;49.88;100691.63;4991849;28;20086;-80
2023/06/24 06:06:46;;;;;;;7.13;4.47;;;;;;;21.68;49.92;100685.00;4974192;28;20133;-80
2023/06/24 06:09:13;;;;;;;7.00;4.60;;;;;;;21.73;49.98;100692.66;4965264;28;20408;-80
2023/06/24 06:11:39;;;;;;;7.60;4.40;;;;;;;21.78;49.85;100686.88;4984104;28;20077;-79
2023/06/24 06:14:06;;;;;;;6.07;4.40;;;;;;;21.82;49.74;100683.78;4976400;28;20450;-80
2023/06/24 06:16:32;;;;;;;7.35;5.07;;;;;;;21.86;50.14;100692.41;4954976;28;20073;-82
2023/06/24 06:18:59;;;;;;;5.68;4.80;;;;;;;21.92;49.81;100683.81;4977688;28;20050;-80
2023/06/24 06:21:26;;;;;;;8.48;4.45;;;;;;;21.97;50.09;100691.44;4995501;28;20077;-80
2023/06/24 06:23:53;;;;;;;6.30;4.93;;;;;;;22.02;50.02;100691.88;4995454;28;20055;-81
2023/06/24 06:26:37;;;;;;;;;;;;;;;;;;;;;
2023/06/24 06:29:07;;;;;;;6.30;4.03;;;;;;;22.16;49.79;100695.13;4991760;28;20061;-84
2023/06/24 06:31:33;;;;;;;7.70;4.88;;;;;;;22.22;49.95;100698.09;4974662;28;20055;-84
2023/06/24 06:34:09;;;;;;;5.22;4.47;;;;;;;22.28;50.05;100701.19;4975064;28;20113;-84
2023/06/24 06:36:56;;;;;;;6.43;4.97;;;;;;;22.34;49.72;100693.44;4974362;28;20086;-84
2023/06/24 06:39:46;;;;;;;;;;;;;;;;;;;;;
2023/06/24 06:42:33;;;;;;;8.30;4.95;;;;;;;22.50;49.50;100692.84;4995316;28;20058;-84
2023/06/24 06:45:18;;;;;;;8.15;5.45;;;;;;;22.53;49.15;100686.34;4994728;28;20501;-84
2023/06/24 06:48:06;;;;;;;5.75;5.00;;;;;;;22.56;49.24;100691.47;4994739;28;20061;-84
2023/06/24 06:51:01;;;;;;;7.00;4.93;;;;;;;22.64;49.21;100688.06;4979055;28;20314;-84
2023/06/24 06:53:54;;;;;;;;;;;;;;;;;;;;;
2023/06/24 06:56:43;;;;;;;10.70;6.47;;;;;;;22.69;49.83;100685.78;4994773;28;20059;-84
2023/06/24 06:59:17;;;;;;;13.73;6.28;;;;;;;22.80;49.89;100694.69;4977528;28;20062;-84
2023/06/24 07:01:44;;;;;;;6.43;5.75;;;;;;;22.86;49.68;100688.72;4994568;28;20074;-83
2023/06/24 07:04:33;;;;;;;;;;;;;;;;;;;;;
2023/06/24 07:07:32;;;;;;;7.43;6.45;;;;;;;22.96;49.81;100699.44;4933008;29;20146;-85
2023/06/24 07:10:04;;;;;;;13.77;6.63;;;;;;;23.03;49.63;100704.06;4933376;29;20062;-84
2023/06/24 07:12:32;;;;;;;10.30;6.72;;;;;;;23.11;49.88;100708.72;4917556;29;20139;-84
2023/06/24 07:15:02;;;;;;;8.43;6.25;;;;;;;23.16;50.28;100711.81;4917277;29;20060;-83
2023/06/24 07:17:36;;;;;;;7.57;6.28;;;;;;;23.24;49.84;100711.06;4928300;28;20132;-84
2023/06/24 07:20:04;;;;;;;7.40;6.20;;;;;;;23.31;49.74;100714.00;4994100;28;20093;-84
2023/06/24 07:22:38;;;;;;;8.35;6.22;;;;;;;23.37;49.74;100716.16;4989524;28;20412;-84
2023/06/24 07:28:06;;;;;;;8.63;7.15;;;;;;;23.54;49.55;100719.00;4999985;23;20042;-82
2023/06/24 07:30:32;;;;;;;9.55;6.85;;;;;;;23.60;49.42;100709.50;4994285;28;20100;-82
2023/06/24 07:33:05;;;;;;;7.55;6.53;;;;;;;23.66;49.29;100706.25;4978039;28;20055;-84
2023/06/24 07:35:34;;;;;;;7.03;5.57;;;;;;;23.72;49.45;100719.06;4989076;28;20059;-84
2023/06/24 07:38:01;;;;;;;8.60;6.30;;;;;;;23.79;49.10;100717.47;4974568;28;20381;-83
2023/06/24 07:40:28;;;;;;;9.75;6.25;;;;;;;23.86;48.96;100722.25;4974681;28;20058;-83
2023/06/24 07:42:54;;;;;;;6.68;5.85;;;;;;;23.92;48.92;100718.97;4986343;28;20541;-83
2023/06/24 07:45:21;;;;;;;10.07;5.90;;;;;;;23.98;48.97;100718.34;4994109;28;20050;-83
2023/06/24 07:47:47;;;;;;;6.65;5.85;;;;;;;24.03;48.83;100720.59;4994035;28;20100;-81
2023/06/24 07:50:14;;;;;;;6.53;5.82;;;;;;;24.10;48.58;100710.91;4993809;28;20542;-83
2023/06/24 07:52:41;;;;;;;10.23;6.20;;;;;;;24.17;48.92;100713.84;4984965;28;20047;-82
2023/06/24 07:55:08;;;;;;;8.40;6.00;;;;;;;24.24;48.72;100714.06;4974202;28;20059;-82
2023/06/24 07:57:34;;;;;;;7.97;6.55;;;;;;;24.32;48.35;100717.69;4974380;28;20078;-83
2023/06/24 08:00:02;;;;;;;7.90;6.28;;;;;;;24.38;48.43;100712.69;4979911;28;20105;-84
2023/06/24 08:02:28;;;;;;;8.02;7.22;;;;;;;24.48;48.13;100726.88;4992911;28;20103;-82
2023/06/24 08:04:55;;;;;;;8.50;6.47;;;;;;;24.56;48.36;100709.97;4992084;28;20140;-82
2023/06/24 08:07:22;;;;;;;6.55;5.93;;;;;;;24.65;48.68;100713.56;4993346;28;20057;-84
2023/06/24 08:09:49;;;;;;;6.18;5.57;;;;;;;24.74;48.93;100718.00;4992424;28;20503;-84
2023/06/24 08:12:15;;;;;;;6.88;6.22;;;;;;;24.85;48.21;100720.47;4974326;28;20161;-83
2023/06/24 08:14:42;;;;;;;11.30;6.80;;;;;;;24.94;47.92;100705.25;4974235;28;20106;-85
2023/06/24 08:17:08;;;;;;;9.07;6.60;;;;;;;25.03;47.83;100703.41;4973859;28;20090;-82
2023/06/24 08:19:35;;;;;;;7.22;6.53;;;;;;;25.10;47.37;100704.47;4974264;28;20384;-82
2023/06/24 08:22:02;;;;;;;7.85;6.35;;;;;;;25.18;47.39;100713.59;4972273;28;20058;-83
2023/06/24 08:24:29;;;;;;;9.30;6.32;;;;;;;25.25;47.49;100701.16;4993218;28;20054;-83
2023/06/24 08:26:55;;;;;;;8.48;6.88;;;;;;;25.35;48.27;100706.44;4993118;28;20043;-82
2023/06/24 08:29:22;;;;;;;11.32;7.53;;;;;;;25.44;47.39;100707.31;4993246;28;20042;-83
2023/06/24 08:31:49;;;;;;;7.32;6.60;;;;;;;25.54;47.28;100708.03;4981695;28;20511;-83
2023/06/24 08:34:15;;;;;;;9.18;7.45;;;;;;;25.61;46.65;100700.16;4974061;28;20061;-82
2023/06/24 08:36:42;;;;;;;6.50;5.78;;;;;;;25.71;46.82;100694.66;4956223;28;20074;-80
2023/06/24 08:39:08;;;;;;;9.40;6.80;;;;;;;25.81;47.10;100698.03;4973504;28;20506;-83
2023/06/24 08:41:35;;;;;;;8.88;7.00;;;;;;;25.91;46.91;100697.03;4979789;28;20050;-83
2023/06/24 08:44:02;;;;;;;7.53;6.78;;;;;;;26.00;47.24;100702.28;4993098;28;20081;-82
2023/06/24 08:46:30;;;;;;;7.07;5.82;;;;;;;26.10;46.65;100696.75;4992936;28;20058;-83
2023/06/24 08:49:11;;;;;;;5.90;5.18;;;;;;;26.21;47.36;100698.28;4975493;28;20546;-83
2023/06/24 08:51:41;;;;;;;7.03;6.10;;;;;;;26.33;46.24;100696.09;4988077;28;20047;-81
2023/06/24 08:54:09;;;;;;;7.22;6.53;;;;;;;26.44;46.80;100696.75;4981433;28;20038;-83
2023/06/24 08:56:40;;;;;;;8.23;6.40;;;;;;;26.54;45.74;100697.44;4980173;28;20053;-82
2023/06/24 08:59:08;;;;;;;10.02;7.40;;;;;;;26.64;45.20;100691.84;4956286;28;20377;-82
2023/06/24 09:01:35;;;;;;;8.82;6.80;;;;;;;26.71;44.55;100683.91;4973923;28;20058;-81
2023/06/24 09:04:02;;;;;;;6.97;6.15;;;;;;;26.79;44.49;100689.28;4992793;28;20047;-84
2023/06/24 09:06:29;;;;;;;9.00;7.45;;;;;;;26.84;44.63;100694.19;4992364;28;20061;-83
2023/06/24 09:08:55;;;;;;;7.70;6.80;;;;;;;26.89;45.48;100681.00;4975136;28;20061;-82
2023/06/24 09:11:24;;;;;;;11.73;7.97;;;;;;;26.93;45.23;100685.91;4992299;28;20046;-83
2023/06/24 09:13:57;;;;;;;10.15;6.93;;;;;;;26.97;45.22;100677.47;4989789;28;20051;-84
2023/06/24 09:16:25;;;;;;;10.63;7.10;;;;;;;27.05;45.26;100677.44;4992297;28;20400;-81
2023/06/24 09:18:52;;;;;;;10.82;7.75;;;;;;;27.14;44.71;100689.06;4992182;28;20050;-83
2023/06/24 09:21:25;;;;;;;11.13;8.13;;;;;;;27.19;43.87;100690.25;4992256;28;20058;-83
2023/06/24 09:23:56;;;;;;;9.90;7.90;;;;;;;27.28;44.23;100680.22;4977863;28;20073;-83
2023/06/24 09:26:26;;;;;;;9.55;7.88;;;;;;;27.35;43.32;100676.84;4972864;28;20372;-82
2023/06/24 09:28:56;;;;;;;9.52;7.47;;;;;;;27.43;43.40;100679.47;4972651;28;20061;-83
2023/06/24 09:31:23;;;;;;;10.63;6.63;;;;;;;27.49;43.07;100676.09;4972821;28;20050;-83
2023/06/24 09:33:50;;;;;;;9.27;7.22;;;;;;;27.52;43.20;100683.00;4990648;28;20703;-82
2023/06/24 09:36:17;;;;;;;7.45;6.70;;;;;;;27.55;42.80;100674.53;4992090;28;20050;-82
2023/06/24 09:38:44;;;;;;;10.95;7.10;;;;;;;27.55;42.68;100669.13;4992026;28;20117;-82
2023/06/24 09:41:12;;;;;;;7.32;6.47;;;;;;;27.56;43.06;100665.41;4992072;28;20050;-81
2023/06/24 09:43:43;;;;;;;10.68;7.22;;;;;;;27.60;42.64;100664.03;4977823;28;20055;-82
2023/06/24 09:46:11;;;;;;;8.60;6.75;;;;;;;27.65;42.72;100664.34;4972905;28;20043;-83
2023/06/24 09:48:38;;;;;;;8.27;6.90;;;;;;;27.72;42.42;100669.06;4986733;28;20515;-82
2023/06/24 09:51:05;;;;;;;7.32;6.07;;;;;;;27.79;43.11;100665.47;4975028;28;20050;-83
2023/06/24 09:53:33;;;;;;;7.05;6.22;;;;;;;27.91;42.36;100665.03;4987051;28;20039;-83
2023/06/24 09:56:03;;;;;;;7.85;7.03;;;;;;;28.00;41.91;100660.41;4972505;28;20051;-82
2023/06/24 09:58:35;;;;;;;7.63;6.70;;;;;;;28.10;41.84;100664.56;4972650;28;20047;-81
2023/06/24 10:01:04;;;;;;;9.90;6.53;;;;;;;28.21;42.77;100659.72;4972718;28;20057;-84
2023/06/24 10:03:40;;;;;;;7.45;6.75;;;;;;;28.31;43.15;100659.50;4973336;28;20054;-83
2023/06/24 10:06:08;;;;;;;7.82;6.20;;;;;;;28.47;42.78;100653.09;4991735;28;20053;-82
2023/06/24 10:08:34;;;;;;;8.27;6.35;;;;;;;28.61;43.36;100646.88;4991436;28;20410;-81
2023/06/24 10:11:02;;;;;;;7.22;6.50;;;;;;;28.78;42.72;100651.28;4991870;28;20050;-83
2023/06/24 10:13:29;;;;;;;9.05;6.63;;;;;;;28.93;41.94;100641.28;4991896;28;20062;-82
2023/06/24 10:15:56;;;;;;;8.00;6.78;;;;;;;29.07;40.83;100641.47;4975308;28;20548;-82
2023/06/24 10:18:44;;;;;;;7.40;6.53;;;;;;;29.15;41.69;100641.34;4986138;28;20078;-81
2023/06/24 10:21:12;;;;;;;9.32;7.13;;;;;;;29.29;40.67;100630.69;4972442;28;20117;-83
2023/06/24 10:23:51;;;;;;;7.07;6.00;;;;;;;29.35;40.70;100632.63;4972457;28;20143;-83
2023/06/24 10:26:35;;;;;;;7.00;6.30;;;;;;;29.38;40.78;100621.41;4989877;28;20108;-83
2023/06/24 10:29:04;;;;;;;8.60;6.63;;;;;;;29.46;40.87;100623.16;4990426;28;20109;-83
2023/06/24 10:31:40;;;;;;;9.27;8.13;;;;;;;29.49;40.06;100618.19;4991337;28;20129;-82
2023/06/24 10:34:18;;;;;;;6.82;6.10;;;;;;;29.50;39.75;100619.88;4988479;28;20141;-83
2023/06/24 10:37:05;;;;;;;8.75;6.40;;;;;;;29.48;40.61;100627.38;4988680;28;20046;-83
2023/06/24 10:39:38;;;;;;;9.02;8.13;;;;;;;29.49;39.12;100623.59;4983527;28;20065;-83
2023/06/24 10:42:28;;;;;;;8.85;7.95;;;;;;;29.39;39.46;100617.66;4991271;28;20054;-83
2023/06/24 10:45:22;;;;;;;7.82;6.68;;;;;;;29.39;40.45;100612.25;4991049;28;20053;-83
2023/06/24 10:47:50;;;;;;;7.18;6.47;;;;;;;29.43;42.17;100613.53;4970824;28;20116;-81
2023/06/24 10:50:19;;;;;;;8.65;7.18;;;;;;;29.59;41.30;100617.06;4991148;28;20050;-81
2023/06/24 10:52:48;;;;;;;8.20;7.22;;;;;;;29.80;40.73;100615.38;4991475;28;20050;-82
2023/06/24 10:55:16;;;;;;;8.80;7.88;;;;;;;29.96;40.00;100612.41;4989404;28;20050;-83
2023/06/24 10:57:44;;;;;;;8.65;7.60;;;;;;;30.07;40.00;100608.34;4971752;28;20524;-81
2023/06/24 11:00:12;;;;;;;8.65;7.78;;;;;;;30.16;39.80;100611.78;4960802;28;20050;-81
2023/06/24 11:02:38;;;;;;;8.73;7.82;;;;;;;30.20;39.34;100602.19;4991161;28;20387;-82
2023/06/24 11:05:06;;;;;;;8.85;7.93;;;;;;;30.29;39.05;100594.75;4992747;28;20276;-82
2023/06/24 11:07:35;;;;;;;8.77;7.85;;;;;;;30.40;39.12;100604.22;4977518;28;20455;-83
2023/06/24 11:10:10;;;;;;;9.55;7.03;;;;;;;30.51;38.76;100600.97;4992969;28;20051;-83
2023/06/24 11:12:40;;;;;;;6.50;5.90;;;;;;;30.53;37.41;100603.44;4975375;28;20097;-83
2023/06/24 11:15:09;;;;;;;6.13;5.53;;;;;;;30.48;37.95;100593.19;4975057;28;20117;-83
2023/06/24 11:17:37;;;;;;;7.50;5.80;;;;;;;30.51;38.41;100598.25;4958018;28;20059;-83
2023/06/24 11:20:09;;;;;;;6.45;5.85;;;;;;;30.68;39.25;100589.75;4958276;28;20055;-84
2023/06/24 11:22:36;;;;;;;6.57;5.75;;;;;;;31.03;39.53;100591.63;4984308;28;20049;-82
2023/06/24 11:25:03;;;;;;;5.85;5.30;;;;;;;31.48;39.73;100583.00;4994488;28;20153;-83
2023/06/24 11:27:31;;;;;;;5.72;5.13;;;;;;;31.92;37.88;100596.25;4994745;28;20097;-81
2023/06/24 11:30:02;;;;;;;6.00;5.40;;;;;;;32.24;36.85;100591.84;4994266;28;20061;-82
2023/06/24 11:32:39;;;;;;;6.15;5.55;;;;;;;32.49;35.56;100593.06;4993690;28;20054;-81
2023/06/24 11:35:08;;;;;;;6.68;5.95;;;;;;;32.72;35.95;100589.88;4994110;28;20082;-82
2023/06/24 11:37:35;;;;;;;5.75;4.57;;;;;;;32.92;35.41;100588.94;4994104;28;20054;-81
2023/06/24 11:40:07;;;;;;;5.65;5.00;;;;;;;33.13;36.06;100587.84;4994216;28;20096;-83
2023/06/24 11:42:44;;;;;;;8.05;5.43;;;;;;;33.41;36.28;100586.63;4981646;28;20050;-84
2023/06/24 11:45:12;;;;;;;5.55;4.97;;;;;;;33.80;36.37;100588.47;4960373;28;20097;-83